Terminal Aerodrome Forecast
Issued by NWS Shreveport, LA

Current Version | Previous Version | Text Only | Print | Product List | Glossary On
Versions: 1 2 3 4 5 6 7 8 9 10 11 12 13 14
116
FTUS44 KSHV 131720
TAFMLU
TAF
KMLU 131720Z 1318/1418 07012KT P6SM SKC
     FM140000 08006KT P6SM SCT250
      TEMPO 1406/1410 BKN045
     FM141000 12005KT P6SM BKN040 BKN250
     FM141500 15008KT P6SM BKN035 BKN250=

USA.gov is the U.S. government's official web portal to all federal, state and local government web resources and services.